sensor_id;sensor_type;location;lat;lon;timestamp;pressure;altitude;pressure_sealevel;temperature
68952;BMP180;56000;51.146;17.112;2023-09-30T00:00:52;100466.40;;;19.14
68952;BMP180;56000;51.146;17.112;2023-09-30T00:03:33;100469.40;;;19.10
68952;BMP180;56000;51.146;17.112;2023-09-30T00:06:05;100469.00;;;19.06
68952;BMP180;56000;51.146;17.112;2023-09-30T00:08:36;100463.00;;;19.00
68952;BMP180;56000;51.146;17.112;2023-09-30T00:11:09;100458.80;;;19.00
68952;BMP180;56000;51.146;17.112;2023-09-30T00:13:40;100466.40;;;19.00
68952;BMP180;56000;51.146;17.112;2023-09-30T00:16:12;100468.40;;;18.96
68952;BMP180;56000;51.146;17.112;2023-09-30T00:18:43;100468.00;;;18.90
68952;BMP180;56000;51.146;17.112;2023-09-30T00:21:15;100465.20;;;18.90
68952;BMP180;56000;51.146;17.112;2023-09-30T00:23:46;100464.60;;;18.90
68952;BMP180;56000;51.146;17.112;2023-09-30T00:26:17;100471.40;;;18.90
68952;BMP180;56000;51.146;17.112;2023-09-30T00:28:49;100470.20;;;18.90
68952;BMP180;56000;51.146;17.112;2023-09-30T00:31:20;100471.60;;;18.90
68952;BMP180;56000;51.146;17.112;2023-09-30T00:33:52;100471.80;;;18.90
68952;BMP180;56000;51.146;17.112;2023-09-30T00:36:24;100469.20;;;18.90
68952;BMP180;56000;51.146;17.112;2023-09-30T00:38:56;100467.40;;;18.90
68952;BMP180;56000;51.146;17.112;2023-09-30T00:41:28;100465.40;;;18.90
68952;BMP180;56000;51.146;17.112;2023-09-30T00:43:59;100464.00;;;18.90
68952;BMP180;56000;51.146;17.112;2023-09-30T00:46:31;100466.60;;;18.90
68952;BMP180;56000;51.146;17.112;2023-09-30T00:49:03;100462.40;;;18.90
68952;BMP180;56000;51.146;17.112;2023-09-30T00:51:34;100465.60;;;18.90
68952;BMP180;56000;51.146;17.112;2023-09-30T00:54:06;100466.00;;;18.90
68952;BMP180;56000;51.146;17.112;2023-09-30T00:56:39;100471.60;;;18.90
68952;BMP180;56000;51.146;17.112;2023-09-30T00:59:14;100469.20;;;18.90
68952;BMP180;56000;51.146;17.112;2023-09-30T01:01:47;100467.40;;;18.90
68952;BMP180;56000;51.146;17.112;2023-09-30T01:04:19;100461.40;;;18.90
68952;BMP180;56000;51.146;17.112;2023-09-30T01:06:51;100468.00;;;18.98
68952;BMP180;56000;51.146;17.112;2023-09-30T01:09:22;100468.60;;;19.00
68952;BMP180;56000;51.146;17.112;2023-09-30T01:11:54;100472.20;;;19.08
68952;BMP180;56000;51.146;17.112;2023-09-30T01:14:29;100474.40;;;19.10
68952;BMP180;56000;51.146;17.112;2023-09-30T01:17:01;100476.00;;;19.20
68952;BMP180;56000;51.146;17.112;2023-09-30T01:19:34;100474.40;;;19.20
68952;BMP180;56000;51.146;17.112;2023-09-30T01:22:05;100472.00;;;19.30
68952;BMP180;56000;51.146;17.112;2023-09-30T01:24:42;100477.40;;;19.30
68952;BMP180;56000;51.146;17.112;2023-09-30T01:27:14;100482.40;;;19.30
68952;BMP180;56000;51.146;17.112;2023-09-30T01:29:48;100481.80;;;19.40
68952;BMP180;56000;51.146;17.112;2023-09-30T01:32:20;100480.60;;;19.42
68952;BMP180;56000;51.146;17.112;2023-09-30T01:34:52;100479.60;;;19.50
68952;BMP180;56000;51.146;17.112;2023-09-30T01:37:23;100480.60;;;19.60
68952;BMP180;56000;51.146;17.112;2023-09-30T01:39:57;100482.00;;;19.60
68952;BMP180;56000;51.146;17.112;2023-09-30T01:42:29;100478.60;;;19.68
68952;BMP180;56000;51.146;17.112;2023-09-30T01:45:00;100477.60;;;19.70
68952;BMP180;56000;51.146;17.112;2023-09-30T01:47:32;100481.60;;;19.72
68952;BMP180;56000;51.146;17.112;2023-09-30T01:50:04;100492.00;;;19.80
68952;BMP180;56000;51.146;17.112;2023-09-30T01:52:35;100491.00;;;19.80
68952;BMP180;56000;51.146;17.112;2023-09-30T01:55:08;100493.20;;;19.80
68952;BMP180;56000;51.146;17.112;2023-09-30T01:57:39;100485.60;;;19.90
68952;BMP180;56000;51.146;17.112;2023-09-30T02:00:11;100487.20;;;19.98
68952;BMP180;56000;51.146;17.112;2023-09-30T02:02:44;100486.20;;;20.00
68952;BMP180;56000;51.146;17.112;2023-09-30T02:05:16;100485.00;;;20.06
68952;BMP180;56000;51.146;17.112;2023-09-30T02:07:48;100489.20;;;20.10
68952;BMP180;56000;51.146;17.112;2023-09-30T02:10:20;100486.00;;;20.10
68952;BMP180;56000;51.146;17.112;2023-09-30T02:12:51;100485.40;;;20.10
68952;BMP180;56000;51.146;17.112;2023-09-30T02:15:23;100483.20;;;20.10
68952;BMP180;56000;51.146;17.112;2023-09-30T02:17:54;100487.40;;;20.10
68952;BMP180;56000;51.146;17.112;2023-09-30T02:20:26;100485.20;;;20.10
68952;BMP180;56000;51.146;17.112;2023-09-30T02:23:00;100487.00;;;20.00
68952;BMP180;56000;51.146;17.112;2023-09-30T02:25:32;100487.80;;;20.00
68952;BMP180;56000;51.146;17.112;2023-09-30T02:28:04;100479.20;;;20.00
68952;BMP180;56000;51.146;17.112;2023-09-30T02:30:36;100485.60;;;20.02
68952;BMP180;56000;51.146;17.112;2023-09-30T02:33:07;100483.80;;;20.00
68952;BMP180;56000;51.146;17.112;2023-09-30T02:35:39;100490.00;;;20.04
68952;BMP180;56000;51.146;17.112;2023-09-30T02:38:15;100490.40;;;20.08
68952;BMP180;56000;51.146;17.112;2023-09-30T02:40:48;100493.40;;;20.00
68952;BMP180;56000;51.146;17.112;2023-09-30T02:43:19;100493.80;;;20.00
68952;BMP180;56000;51.146;17.112;2023-09-30T02:45:51;100500.00;;;20.00
68952;BMP180;56000;51.146;17.112;2023-09-30T02:48:22;100502.40;;;20.00
68952;BMP180;56000;51.146;17.112;2023-09-30T02:50:55;100506.80;;;20.00
68952;BMP180;56000;51.146;17.112;2023-09-30T02:53:26;100505.40;;;20.00
68952;BMP180;56000;51.146;17.112;2023-09-30T02:55:58;100502.80;;;20.00
68952;BMP180;56000;51.146;17.112;2023-09-30T02:58:30;100505.80;;;20.00
68952;BMP180;56000;51.146;17.112;2023-09-30T03:01:01;100507.00;;;19.94
68952;BMP180;56000;51.146;17.112;2023-09-30T03:03:33;100508.60;;;19.90
68952;BMP180;56000;51.146;17.112;2023-09-30T03:06:05;100509.80;;;19.90
68952;BMP180;56000;51.146;17.112;2023-09-30T03:08:37;100513.40;;;19.96
68952;BMP180;56000;51.146;17.112;2023-09-30T03:11:08;100518.60;;;19.94
68952;BMP180;56000;51.146;17.112;2023-09-30T03:13:40;100517.20;;;19.90
68952;BMP180;56000;51.146;17.112;2023-09-30T03:16:12;100517.00;;;19.90
68952;BMP180;56000;51.146;17.112;2023-09-30T03:18:43;100520.60;;;19.90
68952;BMP180;56000;51.146;17.112;2023-09-30T03:21:15;100524.40;;;19.90
68952;BMP180;56000;51.146;17.112;2023-09-30T03:23:47;100527.20;;;19.80
68952;BMP180;56000;51.146;17.112;2023-09-30T03:26:18;100518.60;;;19.74
68952;BMP180;56000;51.146;17.112;2023-09-30T03:28:50;100511.40;;;19.70
68952;BMP180;56000;51.146;17.112;2023-09-30T03:31:22;100510.60;;;19.60
68952;BMP180;56000;51.146;17.112;2023-09-30T03:33:53;100523.20;;;19.58
68952;BMP180;56000;51.146;17.112;2023-09-30T03:36:25;100524.60;;;19.50
68952;BMP180;56000;51.146;17.112;2023-09-30T03:38:57;100525.40;;;19.40
68952;BMP180;56000;51.146;17.112;2023-09-30T03:41:36;100526.60;;;19.36
68952;BMP180;56000;51.146;17.112;2023-09-30T03:44:07;100536.40;;;19.30
68952;BMP180;56000;51.146;17.112;2023-09-30T03:46:39;100538.20;;;19.30
68952;BMP180;56000;51.146;17.112;2023-09-30T03:49:10;100538.80;;;19.30
68952;BMP180;56000;51.146;17.112;2023-09-30T03:51:42;100546.20;;;19.20
68952;BMP180;56000;51.146;17.112;2023-09-30T03:54:13;100545.00;;;19.20
68952;BMP180;56000;51.146;17.112;2023-09-30T03:56:44;100550.00;;;19.20
68952;BMP180;56000;51.146;17.112;2023-09-30T03:59:16;100557.40;;;19.20
68952;BMP180;56000;51.146;17.112;2023-09-30T04:01:49;100555.60;;;19.20
68952;BMP180;56000;51.146;17.112;2023-09-30T04:04:20;100559.40;;;19.20
68952;BMP180;56000;51.146;17.112;2023-09-30T04:06:52;100560.80;;;19.20
68952;BMP180;56000;51.146;17.112;2023-09-30T04:09:23;100562.20;;;19.20
68952;BMP180;56000;51.146;17.112;2023-09-30T04:11:55;100568.00;;;19.20
68952;BMP180;56000;51.146;17.112;2023-09-30T04:14:26;100568.80;;;19.20
68952;BMP180;56000;51.146;17.112;2023-09-30T04:16:58;100574.40;;;19.20
68952;BMP180;56000;51.146;17.112;2023-09-30T04:19:29;100581.40;;;19.10
68952;BMP180;56000;51.146;17.112;2023-09-30T04:22:02;100584.00;;;19.10
68952;BMP180;56000;51.146;17.112;2023-09-30T04:24:34;100579.40;;;19.10
68952;BMP180;56000;51.146;17.112;2023-09-30T04:27:05;100592.60;;;19.10
68952;BMP180;56000;51.146;17.112;2023-09-30T04:29:37;100587.80;;;19.04
68952;BMP180;56000;51.146;17.112;2023-09-30T04:32:09;100584.20;;;19.00
68952;BMP180;56000;51.146;17.112;2023-09-30T04:34:40;100584.80;;;19.00
68952;BMP180;56000;51.146;17.112;2023-09-30T04:37:15;100593.60;;;19.00
68952;BMP180;56000;51.146;17.112;2023-09-30T04:39:47;100596.60;;;18.90
68952;BMP180;56000;51.146;17.112;2023-09-30T04:42:18;100593.40;;;18.90
68952;BMP180;56000;51.146;17.112;2023-09-30T04:44:50;100601.00;;;18.90
68952;BMP180;56000;51.146;17.112;2023-09-30T04:47:21;100601.00;;;18.90
68952;BMP180;56000;51.146;17.112;2023-09-30T04:49:54;100596.00;;;18.86
68952;BMP180;56000;51.146;17.112;2023-09-30T04:52:28;100612.80;;;18.80
68952;BMP180;56000;51.146;17.112;2023-09-30T04:54:59;100621.80;;;18.80
68952;BMP180;56000;51.146;17.112;2023-09-30T04:57:31;100624.60;;;18.74
68952;BMP180;56000;51.146;17.112;2023-09-30T05:00:03;100627.40;;;18.70
68952;BMP180;56000;51.146;17.112;2023-09-30T05:02:41;100634.40;;;18.70
68952;BMP180;56000;51.146;17.112;2023-09-30T05:05:15;100630.20;;;18.70
68952;BMP180;56000;51.146;17.112;2023-09-30T05:07:46;100634.00;;;18.70
68952;BMP180;56000;51.146;17.112;2023-09-30T05:10:18;100629.20;;;18.70
68952;BMP180;56000;51.146;17.112;2023-09-30T05:12:49;100634.60;;;18.70
68952;BMP180;56000;51.146;17.112;2023-09-30T05:15:24;100635.60;;;18.70
68952;BMP180;56000;51.146;17.112;2023-09-30T05:17:55;100644.60;;;18.70
68952;BMP180;56000;51.146;17.112;2023-09-30T05:20:26;100649.80;;;18.70
68952;BMP180;56000;51.146;17.112;2023-09-30T05:22:58;100658.20;;;18.80
68952;BMP180;56000;51.146;17.112;2023-09-30T05:25:29;100658.40;;;18.80
68952;BMP180;56000;51.146;17.112;2023-09-30T05:28:00;100654.40;;;18.80
68952;BMP180;56000;51.146;17.112;2023-09-30T05:30:32;100652.00;;;18.82
68952;BMP180;56000;51.146;17.112;2023-09-30T05:33:05;100658.00;;;18.90
68952;BMP180;56000;51.146;17.112;2023-09-30T05:35:36;100661.20;;;18.90
68952;BMP180;56000;51.146;17.112;2023-09-30T05:38:08;100658.40;;;18.90
68952;BMP180;56000;51.146;17.112;2023-09-30T05:40:40;100662.80;;;18.90
68952;BMP180;56000;51.146;17.112;2023-09-30T05:43:11;100665.00;;;19.00
68952;BMP180;56000;51.146;17.112;2023-09-30T05:45:44;100677.00;;;19.00
68952;BMP180;56000;51.146;17.112;2023-09-30T05:48:19;100676.20;;;19.10
68952;BMP180;56000;51.146;17.112;2023-09-30T05:50:51;100689.40;;;19.10
68952;BMP180;56000;51.146;17.112;2023-09-30T05:53:22;100693.60;;;19.20
68952;BMP180;56000;51.146;17.112;2023-09-30T05:55:54;100696.40;;;19.20
68952;BMP180;56000;51.146;17.112;2023-09-30T05:58:26;100692.80;;;19.20
68952;BMP180;56000;51.146;17.112;2023-09-30T06:00:57;100695.00;;;19.20
68952;BMP180;56000;51.146;17.112;2023-09-30T06:03:30;100695.20;;;19.20
68952;BMP180;56000;51.146;17.112;2023-09-30T06:06:03;100696.00;;;19.20
68952;BMP180;56000;51.146;17.112;2023-09-30T06:08:34;100697.20;;;19.20
68952;BMP180;56000;51.146;17.112;2023-09-30T06:11:07;100701.40;;;19.20
68952;BMP180;56000;51.146;17.112;2023-09-30T06:13:38;100706.20;;;19.20
68952;BMP180;56000;51.146;17.112;2023-09-30T06:16:10;100711.20;;;19.20
68952;BMP180;56000;51.146;17.112;2023-09-30T06:18:41;100720.60;;;19.10
68952;BMP180;56000;51.146;17.112;2023-09-30T06:21:15;100724.80;;;19.10
68952;BMP180;56000;51.146;17.112;2023-09-30T06:23:47;100724.20;;;19.00
68952;BMP180;56000;51.146;17.112;2023-09-30T06:26:21;100723.40;;;18.98
68952;BMP180;56000;51.146;17.112;2023-09-30T06:28:54;100726.80;;;18.90
68952;BMP180;56000;51.146;17.112;2023-09-30T06:31:27;100733.60;;;18.80
68952;BMP180;56000;51.146;17.112;2023-09-30T06:34:01;100748.00;;;18.70
68952;BMP180;56000;51.146;17.112;2023-09-30T06:36:34;100757.40;;;18.60
68952;BMP180;56000;51.146;17.112;2023-09-30T06:39:07;100762.00;;;18.50
68952;BMP180;56000;51.146;17.112;2023-09-30T06:41:40;100769.00;;;18.40
68952;BMP180;56000;51.146;17.112;2023-09-30T06:44:11;100769.00;;;18.40
68952;BMP180;56000;51.146;17.112;2023-09-30T06:46:43;100778.60;;;18.30
68952;BMP180;56000;51.146;17.112;2023-09-30T06:49:15;100782.40;;;18.30
68952;BMP180;56000;51.146;17.112;2023-09-30T06:51:46;100785.60;;;18.24
68952;BMP180;56000;51.146;17.112;2023-09-30T06:54:17;100795.80;;;18.20
68952;BMP180;56000;51.146;17.112;2023-09-30T06:56:49;100802.80;;;18.12
68952;BMP180;56000;51.146;17.112;2023-09-30T06:59:20;100807.40;;;18.10
68952;BMP180;56000;51.146;17.112;2023-09-30T07:01:51;100809.00;;;18.10
68952;BMP180;56000;51.146;17.112;2023-09-30T07:04:24;100814.00;;;18.10
68952;BMP180;56000;51.146;17.112;2023-09-30T07:06:56;100813.20;;;18.00
68952;BMP180;56000;51.146;17.112;2023-09-30T07:09:28;100822.00;;;18.00
68952;BMP180;56000;51.146;17.112;2023-09-30T07:12:00;100827.60;;;18.00
68952;BMP180;56000;51.146;17.112;2023-09-30T07:14:32;100826.80;;;18.00
68952;BMP180;56000;51.146;17.112;2023-09-30T07:17:03;100822.00;;;17.98
68952;BMP180;56000;51.146;17.112;2023-09-30T07:19:35;100834.00;;;17.90
68952;BMP180;56000;51.146;17.112;2023-09-30T07:22:07;100840.60;;;17.96
68952;BMP180;56000;51.146;17.112;2023-09-30T07:24:38;100842.20;;;17.98
68952;BMP180;56000;51.146;17.112;2023-09-30T07:27:10;100850.80;;;18.00
68952;BMP180;56000;51.146;17.112;2023-09-30T07:29:56;100857.00;;;18.00
68952;BMP180;56000;51.146;17.112;2023-09-30T07:32:28;100861.20;;;18.00
68952;BMP180;56000;51.146;17.112;2023-09-30T07:34:59;100866.80;;;18.00
68952;BMP180;56000;51.146;17.112;2023-09-30T07:37:31;100876.00;;;18.00
68952;BMP180;56000;51.146;17.112;2023-09-30T07:40:03;100886.80;;;18.00
68952;BMP180;56000;51.146;17.112;2023-09-30T07:42:35;100886.60;;;17.90
68952;BMP180;56000;51.146;17.112;2023-09-30T07:45:08;100888.20;;;17.90
68952;BMP180;56000;51.146;17.112;2023-09-30T07:47:40;100889.40;;;17.80
68952;BMP180;56000;51.146;17.112;2023-09-30T07:50:12;100886.80;;;17.80
68952;BMP180;56000;51.146;17.112;2023-09-30T07:52:43;100890.60;;;17.80
68952;BMP180;56000;51.146;17.112;2023-09-30T07:55:16;100894.20;;;17.80
68952;BMP180;56000;51.146;17.112;2023-09-30T07:57:47;100894.80;;;17.80
68952;BMP180;56000;51.146;17.112;2023-09-30T08:00:19;100892.80;;;17.80
68952;BMP180;56000;51.146;17.112;2023-09-30T08:02:51;100892.60;;;17.80
68952;BMP180;56000;51.146;17.112;2023-09-30T08:05:23;100893.40;;;17.80
68952;BMP180;56000;51.146;17.112;2023-09-30T08:07:54;100889.60;;;17.74
68952;BMP180;56000;51.146;17.112;2023-09-30T08:10:25;100892.20;;;17.80
68952;BMP180;56000;51.146;17.112;2023-09-30T08:12:57;100894.00;;;17.80
68952;BMP180;56000;51.146;17.112;2023-09-30T08:15:32;100903.60;;;17.86
68952;BMP180;56000;51.146;17.112;2023-09-30T08:18:04;100900.40;;;17.90
68952;BMP180;56000;51.146;17.112;2023-09-30T08:20:38;100904.00;;;17.90
68952;BMP180;56000;51.146;17.112;2023-09-30T08:23:09;100915.60;;;18.00
68952;BMP180;56000;51.146;17.112;2023-09-30T08:25:41;100912.60;;;18.10
68952;BMP180;56000;51.146;17.112;2023-09-30T08:28:13;100919.80;;;18.10
68952;BMP180;56000;51.146;17.112;2023-09-30T08:30:44;100925.60;;;18.34
68952;BMP180;56000;51.146;17.112;2023-09-30T08:33:16;100921.80;;;18.60
68952;BMP180;56000;51.146;17.112;2023-09-30T08:35:47;100918.60;;;18.90
68952;BMP180;56000;51.146;17.112;2023-09-30T08:38:20;100923.00;;;19.18
68952;BMP180;56000;51.146;17.112;2023-09-30T08:40:52;100924.60;;;19.30
68952;BMP180;56000;51.146;17.112;2023-09-30T08:43:24;100933.60;;;19.80
68952;BMP180;56000;51.146;17.112;2023-09-30T08:45:57;100940.00;;;20.10
68952;BMP180;56000;51.146;17.112;2023-09-30T08:48:30;100949.80;;;20.20
68952;BMP180;56000;51.146;17.112;2023-09-30T08:51:03;100946.60;;;20.20
68952;BMP180;56000;51.146;17.112;2023-09-30T08:53:34;100953.80;;;20.10
68952;BMP180;56000;51.146;17.112;2023-09-30T08:56:06;100949.80;;;20.32
68952;BMP180;56000;51.146;17.112;2023-09-30T08:58:40;100945.80;;;20.64
68952;BMP180;56000;51.146;17.112;2023-09-30T09:01:11;100948.60;;;21.52
68952;BMP180;56000;51.146;17.112;2023-09-30T09:03:43;100953.20;;;21.60
68952;BMP180;56000;51.146;17.112;2023-09-30T09:06:14;100956.80;;;21.48
68952;BMP180;56000;51.146;17.112;2023-09-30T09:08:46;100966.40;;;22.12
68952;BMP180;56000;51.146;17.112;2023-09-30T09:11:18;100960.20;;;23.04
68952;BMP180;56000;51.146;17.112;2023-09-30T09:13:50;100969.60;;;23.88
68952;BMP180;56000;51.146;17.112;2023-09-30T09:16:25;100970.40;;;24.70
68952;BMP180;56000;51.146;17.112;2023-09-30T09:18:57;100976.60;;;24.70
68952;BMP180;56000;51.146;17.112;2023-09-30T09:21:29;100977.20;;;24.16
68952;BMP180;56000;51.146;17.112;2023-09-30T09:24:00;100978.40;;;23.80
68952;BMP180;56000;51.146;17.112;2023-09-30T09:26:33;100980.80;;;23.72
68952;BMP180;56000;51.146;17.112;2023-09-30T09:29:05;100988.80;;;23.00
68952;BMP180;56000;51.146;17.112;2023-09-30T09:31:37;100988.20;;;22.60
68952;BMP180;56000;51.146;17.112;2023-09-30T09:34:14;100987.80;;;22.30
68952;BMP180;56000;51.146;17.112;2023-09-30T09:36:46;100983.80;;;22.66
68952;BMP180;56000;51.146;17.112;2023-09-30T09:39:18;100985.20;;;23.94
68952;BMP180;56000;51.146;17.112;2023-09-30T09:42:00;100981.80;;;25.00
68952;BMP180;56000;51.146;17.112;2023-09-30T09:44:33;100977.80;;;25.94
68952;BMP180;56000;51.146;17.112;2023-09-30T09:47:05;100983.20;;;26.92
68952;BMP180;56000;51.146;17.112;2023-09-30T09:49:41;100985.00;;;27.74
68952;BMP180;56000;51.146;17.112;2023-09-30T09:52:12;100980.00;;;28.52
68952;BMP180;56000;51.146;17.112;2023-09-30T09:54:45;100983.20;;;29.20
68952;BMP180;56000;51.146;17.112;2023-09-30T09:57:18;100987.60;;;29.54
68952;BMP180;56000;51.146;17.112;2023-09-30T09:59:50;100986.80;;;29.80
68952;BMP180;56000;51.146;17.112;2023-09-30T10:02:22;100991.20;;;29.40
68952;BMP180;56000;51.146;17.112;2023-09-30T10:04:54;100992.60;;;28.96
68952;BMP180;56000;51.146;17.112;2023-09-30T10:07:29;100985.80;;;28.20
68952;BMP180;56000;51.146;17.112;2023-09-30T10:10:02;100998.00;;;27.82
68952;BMP180;56000;51.146;17.112;2023-09-30T10:12:38;100995.80;;;27.40
68952;BMP180;56000;51.146;17.112;2023-09-30T10:15:36;100991.20;;;27.40
68952;BMP180;56000;51.146;17.112;2023-09-30T10:18:10;100989.20;;;27.96
68952;BMP180;56000;51.146;17.112;2023-09-30T10:20:45;100982.00;;;28.98
68952;BMP180;56000;51.146;17.112;2023-09-30T10:23:26;100994.00;;;30.00
68952;BMP180;56000;51.146;17.112;2023-09-30T10:26:19;100984.00;;;30.20
68952;BMP180;56000;51.146;17.112;2023-09-30T10:28:53;100984.80;;;30.64
68952;BMP180;56000;51.146;17.112;2023-09-30T10:31:25;100988.60;;;31.42
68952;BMP180;56000;51.146;17.112;2023-09-30T10:37:09;100997.40;;;32.18
68952;BMP180;56000;51.146;17.112;2023-09-30T10:39:57;100998.40;;;32.58
68952;BMP180;56000;51.146;17.112;2023-09-30T10:42:49;101006.00;;;32.50
68952;BMP180;56000;51.146;17.112;2023-09-30T10:45:45;101006.80;;;32.40
68952;BMP180;56000;51.146;17.112;2023-09-30T10:48:36;101011.80;;;31.30
68952;BMP180;56000;51.146;17.112;2023-09-30T10:51:15;101019.40;;;31.50
68952;BMP180;56000;51.146;17.112;2023-09-30T10:53:50;101012.40;;;31.20
68952;BMP180;56000;51.146;17.112;2023-09-30T10:56:32;101018.40;;;30.74
68952;BMP180;56000;51.146;17.112;2023-09-30T10:59:04;101012.60;;;29.96
68952;BMP180;56000;51.146;17.112;2023-09-30T11:01:36;101017.20;;;29.32
68952;BMP180;56000;51.146;17.112;2023-09-30T11:04:08;101011.80;;;28.90
68952;BMP180;56000;51.146;17.112;2023-09-30T11:06:42;101013.40;;;28.80
68952;BMP180;56000;51.146;17.112;2023-09-30T11:09:17;101021.20;;;28.90
68952;BMP180;56000;51.146;17.112;2023-09-30T11:11:50;101022.80;;;28.90
68952;BMP180;56000;51.146;17.112;2023-09-30T11:14:23;101021.80;;;29.16
68952;BMP180;56000;51.146;17.112;2023-09-30T11:16:59;101027.60;;;29.20
68952;BMP180;56000;51.146;17.112;2023-09-30T11:19:37;101036.00;;;28.86
68952;BMP180;56000;51.146;17.112;2023-09-30T11:22:16;101027.80;;;28.74
68952;BMP180;56000;51.146;17.112;2023-09-30T11:24:48;101037.80;;;28.04
68952;BMP180;56000;51.146;17.112;2023-09-30T11:27:25;101038.20;;;27.36
68952;BMP180;56000;51.146;17.112;2023-09-30T11:29:57;101048.40;;;26.48
68952;BMP180;56000;51.146;17.112;2023-09-30T11:32:29;101048.00;;;25.64
68952;BMP180;56000;51.146;17.112;2023-09-30T11:35:02;101045.40;;;25.28
68952;BMP180;56000;51.146;17.112;2023-09-30T11:37:34;101039.20;;;24.94
68952;BMP180;56000;51.146;17.112;2023-09-30T11:40:14;101038.20;;;24.56
68952;BMP180;56000;51.146;17.112;2023-09-30T11:43:08;101036.80;;;24.20
68952;BMP180;56000;51.146;17.112;2023-09-30T11:45:42;101036.80;;;23.88
68952;BMP180;56000;51.146;17.112;2023-09-30T11:48:20;101038.00;;;23.44
68952;BMP180;56000;51.146;17.112;2023-09-30T11:50:52;101027.60;;;23.40
68952;BMP180;56000;51.146;17.112;2023-09-30T11:53:25;101032.40;;;23.74
68952;BMP180;56000;51.146;17.112;2023-09-30T11:55:57;101040.80;;;24.38
68952;BMP180;56000;51.146;17.112;2023-09-30T11:58:29;101035.80;;;24.60
68952;BMP180;56000;51.146;17.112;2023-09-30T12:01:02;101035.20;;;24.60
68952;BMP180;56000;51.146;17.112;2023-09-30T12:03:37;101031.00;;;25.04
68952;BMP180;56000;51.146;17.112;2023-09-30T12:06:10;101027.40;;;26.18
68952;BMP180;56000;51.146;17.112;2023-09-30T12:08:43;101028.40;;;27.96
68952;BMP180;56000;51.146;17.112;2023-09-30T12:11:15;101031.80;;;29.42
68952;BMP180;56000;51.146;17.112;2023-09-30T12:13:46;101038.40;;;30.60
68952;BMP180;56000;51.146;17.112;2023-09-30T12:16:19;101031.20;;;31.54
68952;BMP180;56000;51.146;17.112;2023-09-30T12:18:51;101034.20;;;32.10
68952;BMP180;56000;51.146;17.112;2023-09-30T12:21:22;101027.40;;;32.58
68952;BMP180;56000;51.146;17.112;2023-09-30T12:23:54;101034.40;;;33.44
68952;BMP180;56000;51.146;17.112;2023-09-30T12:26:25;101035.80;;;33.90
68952;BMP180;56000;51.146;17.112;2023-09-30T12:28:57;101026.80;;;34.00
68952;BMP180;56000;51.146;17.112;2023-09-30T12:31:28;101027.00;;;34.20
68952;BMP180;56000;51.146;17.112;2023-09-30T12:34:18;101027.60;;;33.58
68952;BMP180;56000;51.146;17.112;2023-09-30T12:36:50;101030.00;;;33.20
68952;BMP180;56000;51.146;17.112;2023-09-30T12:39:21;101033.60;;;32.74
68952;BMP180;56000;51.146;17.112;2023-09-30T12:41:56;101034.60;;;32.56
68952;BMP180;56000;51.146;17.112;2023-09-30T12:44:27;101038.80;;;33.48
68952;BMP180;56000;51.146;17.112;2023-09-30T12:46:59;101034.40;;;34.60
68952;BMP180;56000;51.146;17.112;2023-09-30T12:49:30;101035.40;;;35.22
68952;BMP180;56000;51.146;17.112;2023-09-30T12:52:01;101041.00;;;35.36
68952;BMP180;56000;51.146;17.112;2023-09-30T12:54:33;101047.40;;;35.08
68952;BMP180;56000;51.146;17.112;2023-09-30T12:57:05;101041.00;;;33.86
68952;BMP180;56000;51.146;17.112;2023-09-30T12:59:37;101044.80;;;33.04
68952;BMP180;56000;51.146;17.112;2023-09-30T13:02:09;101031.80;;;32.20
68952;BMP180;56000;51.146;17.112;2023-09-30T13:04:41;101042.20;;;33.12
68952;BMP180;56000;51.146;17.112;2023-09-30T13:07:14;101041.40;;;34.32
68952;BMP180;56000;51.146;17.112;2023-09-30T13:09:46;101039.20;;;34.88
68952;BMP180;56000;51.146;17.112;2023-09-30T13:12:17;101035.60;;;35.18
68952;BMP180;56000;51.146;17.112;2023-09-30T13:14:48;101038.60;;;35.08
68952;BMP180;56000;51.146;17.112;2023-09-30T13:17:20;101042.00;;;34.46
68952;BMP180;56000;51.146;17.112;2023-09-30T13:19:51;101041.40;;;33.06
68952;BMP180;56000;51.146;17.112;2023-09-30T13:22:22;101038.60;;;32.64
68952;BMP180;56000;51.146;17.112;2023-09-30T13:24:54;101050.40;;;31.94
68952;BMP180;56000;51.146;17.112;2023-09-30T13:27:25;101045.60;;;30.58
68952;BMP180;56000;51.146;17.112;2023-09-30T13:29:58;101043.00;;;30.26
68952;BMP180;56000;51.146;17.112;2023-09-30T13:32:29;101045.40;;;31.28
68952;BMP180;56000;51.146;17.112;2023-09-30T13:35:03;101037.00;;;32.24
68952;BMP180;56000;51.146;17.112;2023-09-30T13:37:35;101041.40;;;32.94
68952;BMP180;56000;51.146;17.112;2023-09-30T13:40:08;101044.40;;;33.50
68952;BMP180;56000;51.146;17.112;2023-09-30T13:42:42;101043.60;;;32.98
68952;BMP180;56000;51.146;17.112;2023-09-30T13:45:14;101042.40;;;32.28
68952;BMP180;56000;51.146;17.112;2023-09-30T13:47:47;101052.00;;;30.66
68952;BMP180;56000;51.146;17.112;2023-09-30T13:50:18;101047.40;;;28.56
68952;BMP180;56000;51.146;17.112;2023-09-30T13:52:49;101051.40;;;26.68
68952;BMP180;56000;51.146;17.112;2023-09-30T13:55:21;101046.40;;;25.28
68952;BMP180;56000;51.146;17.112;2023-09-30T13:57:52;101057.20;;;24.00
68952;BMP180;56000;51.146;17.112;2023-09-30T14:00:24;101052.20;;;23.06
68952;BMP180;56000;51.146;17.112;2023-09-30T14:02:56;101052.20;;;22.40
68952;BMP180;56000;51.146;17.112;2023-09-30T14:05:29;101050.80;;;22.00
68952;BMP180;56000;51.146;17.112;2023-09-30T14:08:00;101049.80;;;21.80
68952;BMP180;56000;51.146;17.112;2023-09-30T14:10:32;101049.40;;;21.60
68952;BMP180;56000;51.146;17.112;2023-09-30T14:13:03;101053.00;;;21.48
68952;BMP180;56000;51.146;17.112;2023-09-30T14:15:35;101051.60;;;21.20
68952;BMP180;56000;51.146;17.112;2023-09-30T14:18:07;101049.40;;;21.10